Flight Track Log - Related Links

Times and Time Zones

All times are in EDT time to prevent confusion due to time zone crossing. See the TYR532 flight status page for this flight to view local times or setup timezone preferences in your user account.

Time Position Orientation Groundspeed Altitude Reporting Facility
EDT Latitude Longitude Course Direction KTS MPH feet Rate Location/Type
Sun 09:18:00 AM 44.1497 11.5897 39° Northeast  Level Estimated
Sun 09:19:00 AM 44.2175 11.6671 39° Northeast  Level Estimated
Sun 09:20:00 AM 44.2852 11.7447 39° Northeast  Level Estimated
Sun 09:21:00 AM 44.3529 11.8225 39° Northeast  Level Estimated
Sun 09:22:00 AM 44.4206 11.9005 39° Northeast  Level Estimated
Sun 09:23:00 AM 44.4881 11.9787 40° Northeast  Level Estimated
Sun 09:24:00 AM 44.5557 12.0570 40° Northeast  Level Estimated
Sun 09:25:00 AM 44.6231 12.1355 40° Northeast  Level Estimated
Sun 09:26:00 AM 44.6906 12.2142 40° Northeast  Level Estimated
Sun 09:27:00 AM 44.7579 12.2931 40° Northeast  Level Estimated
Sun 09:28:00 AM 44.8252 12.3722 40° Northeast  Level Estimated
Sun 09:29:00 AM 44.8925 12.4515 40° Northeast  Level Estimated
Sun 09:30:00 AM 44.9597 12.5309 40° Northeast  Level Estimated
Sun 09:31:00 AM 45.0269 12.6105 40° Northeast  Level Estimated
Sun 09:32:00 AM 45.0939 12.6903 40° Northeast  Level Estimated
Sun 09:33:00 AM 45.1610 12.7703 40° Northeast  Level Estimated
Sun 09:34:00 AM 45.2280 12.8505 40° Northeast  Level Estimated
Sun 09:35:00 AM 45.2949 12.9309 40° Northeast  Level Estimated
Sun 09:36:00 AM 45.3618 13.0115 40° Northeast  Level Estimated
Sun 09:37:00 AM 45.4286 13.0922 40° Northeast  Level Estimated
Sun 09:38:00 AM 45.4953 13.1732 40° Northeast  Level Estimated
Sun 09:39:00 AM 45.5620 13.2543 40° Northeast  Level Estimated
Sun 09:40:00 AM 45.6287 13.3357 40° Northeast  Level Estimated
Sun 09:41:00 AM 45.6952 13.4172 41° Northeast  Level Estimated
Sun 09:42:00 AM 45.7618 13.4990 41° Northeast  Level Estimated
Sun 09:43:00 AM 45.8282 13.5809 41° Northeast  Level Estimated
Sun 09:44:00 AM 45.8946 13.6630 41° Northeast  Level Estimated
Sun 09:45:00 AM 45.9610 13.7453 41° Northeast  Level Estimated
Sun 09:46:00 AM 46.0273 13.8278 41° Northeast  Level Estimated
Sun 09:47:00 AM 46.0935 13.9105 41° Northeast  Level Estimated
Sun 09:48:00 AM 46.1597 13.9934 41° Northeast  Level Estimated
Sun 09:49:00 AM 46.2258 14.0765 41° Northeast  Level Estimated
Sun 09:50:00 AM 46.2918 14.1598 41° Northeast  Level Estimated
Sun 09:51:00 AM 46.3578 14.2434 41° Northeast  Level Estimated
Sun 09:52:00 AM 46.4237 14.3271 41° Northeast  Level Estimated
Sun 09:53:00 AM 46.4896 14.4110 41° Northeast  Level Estimated
Sun 09:54:00 AM 46.5554 14.4951 41° Northeast  Level Estimated
Sun 09:55:00 AM 46.6212 14.5794 41° Northeast  Level Estimated
Sun 09:56:00 AM 46.6868 14.6639 41° Northeast  Level Estimated
Sun 09:57:00 AM 46.7524 14.7487 41° Northeast  Level Estimated
Sun 09:58:00 AM 46.8180 14.8336 42° Northeast  Level Estimated
Sun 09:59:00 AM 46.8835 14.9187 42° Northeast  Level Estimated
Sun 10:00:00 AM 46.9489 15.0041 42° Northeast  Level Estimated
Sun 10:01:00 AM 47.0143 15.0897 42° Northeast  Level Estimated
Sun 10:02:00 AM 47.0796 15.1754 42° Northeast  Level Estimated
Sun 10:03:00 AM 47.1448 15.2614 42° Northeast  Level Estimated
Sun 10:04:00 AM 47.2100 15.3476 42° Northeast  Level Estimated
Sun 10:05:00 AM 47.2751 15.4340 42° Northeast  Level Estimated
Sun 10:06:00 AM 47.3401 15.5206 42° Northeast  Level Estimated
Sun 10:07:00 AM 47.4051 15.6075 42° Northeast  Level Estimated
Sun 10:08:00 AM 47.4700 15.6945 42° Northeast  Level Estimated
Sun 10:09:00 AM 47.5349 15.7818 42° Northeast  Level Estimated
Sun 10:10:00 AM 47.5997 15.8693 42° Northeast  Level Estimated
Sun 10:11:00 AM 47.6644 15.9570 42° Northeast  Level Estimated
Sun 10:12:00 AM 47.7290 16.0449 42° Northeast  Level Estimated
Sun 10:13:00 AM 47.7936 16.1330 43° Northeast  Level Estimated
Sun 10:14:00 AM 47.8581 16.2213 43° Northeast  Level Estimated
Sun 10:15:00 AM 47.9226 16.3099 43° Northeast  Level Estimated
Sun 10:16:00 AM 47.9869 16.3987 43° Northeast  Level Estimated
Sun 10:17:00 AM 48.0512 16.4877 43° Northeast  Level Estimated
Sun 10:18:00 AM 48.1103 16.5697 43° Northeast  Level Estimated
Sun 10:19:00 AM 48.1103 16.5697 North  Level Estimated
Sun 10:20:00 AM 48.1103 16.5697 North  Level Estimated
Sun 10:21:00 AM 48.1103 16.5697 North  Level Estimated
Sun 10:22:00 AM 48.1103 16.5697 North  Level Estimated
Sun 10:23:00 AM 48.1103 16.5697 North  Level Estimated
Sun 10:24:00 AM 48.1103 16.5697 North  Level Estimated
Sun 10:25:00 AM 48.1103 16.5697 North  Level Estimated
Sun 10:26:00 AM 48.1103 16.5697 North  Level Estimated
Sun 10:27:00 AM 48.1103 16.5697 North  Level Estimated
Sun 10:28:00 AM 48.1103 16.5697 North  Level Estimated
Sun 10:29:00 AM 48.1103 16.5697 North  Level Estimated

Login

Don't have an account? Register now (free) for customized features, flight alerts, and more!